createdAt,value
2022-07-29T00:00:59.249Z,1.65
2022-07-29T00:03:26.248Z,1.15
2022-07-29T00:05:54.109Z,1.50
2022-07-29T00:08:21.105Z,1.30
2022-07-29T00:10:48.047Z,1.42
2022-07-29T00:13:14.940Z,1.35
2022-07-29T00:15:41.803Z,1.35
2022-07-29T00:18:08.551Z,1.42
2022-07-29T00:20:35.366Z,1.35
2022-07-29T00:23:02.115Z,1.40
2022-07-29T00:25:28.803Z,1.30
2022-07-29T00:27:55.487Z,1.23
2022-07-29T00:30:22.315Z,1.27
2022-07-29T00:32:49.074Z,1.30
2022-07-29T00:35:34.121Z,1.58
2022-07-29T00:38:00.813Z,1.30
2022-07-29T00:40:28.929Z,1.45
2022-07-29T00:42:55.736Z,1.38
2022-07-29T00:45:23.217Z,1.23
2022-07-29T00:47:50.178Z,1.30
2022-07-29T00:50:17.366Z,1.17
2022-07-29T00:52:44.250Z,1.63
2022-07-29T00:55:13.458Z,1.45
2022-07-29T00:57:41.977Z,1.50
2022-07-29T01:00:12.670Z,1.35
2022-07-29T01:02:39.553Z,1.05
2022-07-29T01:05:07.102Z,1.33
2022-07-29T01:07:36.105Z,1.25
2022-07-29T01:10:05.321Z,1.40
2022-07-29T01:12:34.707Z,1.17
2022-07-29T01:15:03.708Z,1.15
2022-07-29T01:17:53.606Z,1.65
2022-07-29T01:20:39.102Z,1.13
2022-07-29T01:23:56.243Z,1.35
2022-07-29T01:26:33.997Z,1.20
2022-07-29T01:29:16.879Z,1.10
2022-07-29T01:32:00.867Z,1.30
2022-07-29T01:34:51.324Z,1.15
2022-07-29T01:37:25.929Z,1.40
2022-07-29T01:39:56.202Z,1.45
2022-07-29T01:42:31.766Z,1.45
2022-07-29T01:45:03.080Z,1.38
2022-07-29T01:47:39.852Z,1.20
2022-07-29T01:50:11.332Z,1.63
2022-07-29T01:53:00.896Z,1.38
2022-07-29T01:55:32.075Z,1.27
2022-07-29T01:58:01.060Z,1.50
2022-07-29T02:00:29.326Z,1.52
2022-07-29T02:02:57.071Z,1.50
2022-07-29T02:05:28.246Z,1.92
2022-07-29T02:07:56.794Z,1.35
2022-07-29T02:10:27.642Z,1.35
2022-07-29T02:12:56.839Z,1.50
2022-07-29T02:15:29.706Z,1.58
2022-07-29T02:18:00.929Z,1.70
2022-07-29T02:20:29.980Z,2.00
2022-07-29T02:22:59.494Z,1.77
2022-07-29T02:25:37.066Z,1.52
2022-07-29T02:28:07.573Z,1.70
2022-07-29T02:30:37.760Z,1.73
2022-07-29T02:33:05.666Z,1.55
2022-07-29T02:35:34.635Z,1.83
2022-07-29T02:38:22.829Z,1.63
2022-07-29T02:40:51.511Z,1.67
2022-07-29T02:43:19.545Z,1.92
2022-07-29T02:45:48.330Z,1.58
2022-07-29T02:48:22.594Z,1.63
2022-07-29T02:50:55.545Z,1.92
2022-07-29T02:53:26.054Z,1.63
2022-07-29T02:56:07.488Z,1.67
2022-07-29T02:58:47.210Z,1.65
2022-07-29T03:01:21.865Z,1.95
2022-07-29T03:03:50.599Z,1.60
2022-07-29T03:06:37.656Z,1.70
2022-07-29T03:09:12.956Z,1.55
2022-07-29T03:11:50.093Z,1.60
2022-07-29T03:14:20.339Z,1.60
2022-07-29T03:16:48.379Z,1.52
2022-07-29T03:19:15.480Z,1.65
2022-07-29T03:21:42.170Z,1.80
2022-07-29T03:24:10.827Z,1.35
2022-07-29T03:26:37.925Z,1.77
2022-07-29T03:29:04.663Z,1.67
2022-07-29T03:31:32.150Z,1.77
2022-07-29T03:34:00.410Z,1.42
2022-07-29T03:36:27.111Z,1.60
2022-07-29T03:38:54.404Z,1.60
2022-07-29T03:41:23.512Z,1.73
2022-07-29T03:43:52.535Z,1.60
2022-07-29T03:46:22.270Z,1.60
2022-07-29T03:48:53.852Z,1.63
2022-07-29T03:54:09.870Z,1.40
2022-07-29T03:56:48.700Z,1.75
2022-07-29T03:59:17.142Z,1.65
2022-07-29T04:01:45.719Z,1.80
2022-07-29T04:04:13.191Z,1.80
2022-07-29T04:06:44.661Z,1.58
2022-07-29T04:09:13.044Z,1.40
2022-07-29T04:12:01.475Z,1.95
2022-07-29T04:14:27.997Z,1.70
2022-07-29T04:16:54.686Z,1.42
2022-07-29T04:19:21.338Z,1.50
2022-07-29T04:21:48.140Z,1.50
2022-07-29T04:24:15.411Z,1.60
2022-07-29T04:26:42.439Z,1.63
2022-07-29T04:29:09.369Z,1.50
2022-07-29T04:31:36.123Z,1.63
2022-07-29T04:34:02.853Z,1.40
2022-07-29T04:36:30.181Z,1.65
2022-07-29T04:38:57.218Z,1.70
2022-07-29T04:41:23.916Z,1.48
2022-07-29T04:44:02.033Z,1.80
2022-07-29T04:46:28.957Z,2.00
2022-07-29T04:48:55.830Z,1.98
2022-07-29T04:51:22.666Z,1.63
2022-07-29T04:53:49.378Z,1.73
2022-07-29T04:56:16.101Z,1.70
2022-07-29T04:58:42.838Z,1.70
2022-07-29T05:01:09.609Z,1.90
2022-07-29T05:03:36.446Z,1.88
2022-07-29T05:06:03.375Z,1.85
2022-07-29T05:08:30.133Z,1.95
2022-07-29T05:10:56.925Z,2.08
2022-07-29T05:13:23.709Z,1.83
2022-07-29T05:15:50.688Z,1.50
2022-07-29T05:18:17.436Z,2.00
2022-07-29T05:20:44.365Z,1.70
2022-07-29T05:23:13.645Z,2.00
2022-07-29T05:25:43.487Z,1.80
2022-07-29T05:28:11.904Z,2.00
2022-07-29T05:30:39.152Z,2.10
2022-07-29T05:33:05.910Z,1.95
2022-07-29T05:35:32.721Z,2.05
2022-07-29T05:37:59.427Z,1.80
2022-07-29T05:40:26.174Z,2.03
2022-07-29T05:42:52.928Z,1.90
2022-07-29T05:45:19.611Z,2.08
2022-07-29T05:47:46.566Z,2.15
2022-07-29T05:50:13.541Z,2.33
2022-07-29T05:52:40.351Z,2.33
2022-07-29T05:55:07.463Z,2.25
2022-07-29T05:57:34.262Z,2.17
2022-07-29T06:00:01.038Z,1.65
2022-07-29T06:02:27.886Z,2.83
2022-07-29T06:04:54.872Z,1.80
2022-07-29T06:07:22.023Z,2.10
2022-07-29T06:09:48.814Z,1.75
2022-07-29T06:12:15.616Z,1.90
2022-07-29T06:14:42.525Z,2.15
2022-07-29T06:17:09.337Z,3.03
2022-07-29T06:19:37.240Z,1.92
2022-07-29T06:22:04.414Z,2.13
2022-07-29T06:24:31.637Z,1.92
2022-07-29T06:26:58.322Z,2.22
2022-07-29T06:29:25.114Z,1.90
2022-07-29T06:31:52.021Z,1.98
2022-07-29T06:34:19.300Z,2.17
2022-07-29T06:36:47.561Z,2.15
2022-07-29T06:39:15.556Z,2.40
2022-07-29T06:41:42.461Z,2.00
2022-07-29T06:44:09.294Z,2.40
2022-07-29T06:46:36.195Z,2.30
2022-07-29T06:49:03.451Z,2.25
2022-07-29T06:51:30.497Z,1.98
2022-07-29T06:54:02.046Z,1.95
2022-07-29T06:56:39.420Z,2.33
2022-07-29T06:59:07.514Z,2.20
2022-07-29T07:01:34.362Z,1.88
2022-07-29T07:04:01.303Z,2.05
2022-07-29T07:06:28.427Z,2.40
2022-07-29T07:08:55.329Z,2.05
2022-07-29T07:11:22.224Z,2.60
2022-07-29T07:13:48.950Z,2.22
2022-07-29T07:16:15.948Z,2.58
2022-07-29T07:18:43.038Z,2.30
2022-07-29T07:21:09.813Z,2.60
2022-07-29T07:23:36.536Z,2.00
2022-07-29T07:26:04.044Z,2.00
2022-07-29T07:28:30.735Z,2.53
2022-07-29T07:30:57.559Z,2.70
2022-07-29T07:33:24.402Z,2.10
2022-07-29T07:35:51.314Z,2.20
2022-07-29T07:38:18.046Z,2.53
2022-07-29T07:40:44.723Z,2.28
2022-07-29T07:43:11.463Z,2.63
2022-07-29T07:45:38.557Z,2.08
2022-07-29T07:48:05.901Z,2.17
2022-07-29T07:50:32.751Z,2.28
2022-07-29T07:52:59.728Z,2.45
2022-07-29T07:55:27.209Z,2.40
2022-07-29T07:57:54.972Z,2.85
2022-07-29T08:00:23.225Z,2.88
2022-07-29T08:02:51.051Z,2.30
2022-07-29T08:05:18.606Z,2.63
2022-07-29T08:07:46.951Z,2.90
2022-07-29T08:10:16.052Z,2.55
2022-07-29T08:12:44.657Z,2.05
2022-07-29T08:15:11.470Z,2.33
2022-07-29T08:17:38.150Z,2.00
2022-07-29T08:20:05.350Z,2.25
2022-07-29T08:22:32.169Z,2.60
2022-07-29T08:24:58.885Z,3.17
2022-07-29T08:27:43.292Z,2.88
2022-07-29T08:30:11.272Z,2.50
2022-07-29T08:32:53.322Z,2.30
2022-07-29T08:35:22.278Z,2.35
2022-07-29T08:37:49.322Z,2.85
2022-07-29T08:40:16.205Z,2.58
2022-07-29T08:42:43.165Z,2.42
2022-07-29T08:45:10.334Z,2.17
2022-07-29T08:47:40.494Z,2.47
2022-07-29T08:50:11.297Z,2.30
2022-07-29T08:52:40.117Z,2.78
2022-07-29T08:55:09.358Z,2.60
2022-07-29T08:57:37.344Z,2.70
2022-07-29T09:00:11.559Z,2.22
2022-07-29T09:02:46.802Z,2.35
2022-07-29T09:05:15.312Z,2.40
2022-07-29T09:07:44.219Z,2.15
2022-07-29T09:10:11.433Z,1.77
2022-07-29T09:12:38.851Z,2.10
2022-07-29T09:15:06.187Z,1.98
2022-07-29T09:17:49.570Z,1.98
2022-07-29T09:20:18.020Z,1.98
2022-07-29T09:22:48.161Z,2.30
2022-07-29T09:25:14.878Z,1.90
2022-07-29T09:27:42.042Z,2.10
2022-07-29T09:30:13.315Z,1.80
2022-07-29T09:32:58.258Z,1.80
2022-07-29T09:35:26.869Z,2.20
2022-07-29T09:37:53.777Z,2.03
2022-07-29T09:40:29.099Z,2.00
2022-07-29T09:42:58.169Z,1.88
2022-07-29T09:45:33.813Z,1.83
2022-07-29T09:48:13.494Z,1.67
2022-07-29T09:50:42.235Z,1.90
2022-07-29T09:53:12.339Z,2.03
2022-07-29T09:55:52.528Z,2.22
2022-07-29T09:58:21.201Z,1.85
2022-07-29T10:00:49.145Z,2.03
2022-07-29T10:03:17.179Z,2.10
2022-07-29T10:05:44.811Z,1.83
2022-07-29T10:08:13.465Z,1.92
2022-07-29T10:10:42.695Z,1.80
2022-07-29T10:13:16.605Z,1.55
2022-07-29T10:15:46.292Z,1.58
2022-07-29T10:18:14.805Z,1.83
2022-07-29T10:20:42.338Z,2.20
2022-07-29T10:23:10.263Z,2.20
2022-07-29T10:25:37.202Z,2.10
2022-07-29T10:28:04.102Z,1.70
2022-07-29T10:30:31.949Z,1.88
2022-07-29T10:33:15.168Z,2.22
2022-07-29T10:35:56.827Z,1.70
2022-07-29T10:38:49.515Z,2.25
2022-07-29T10:41:32.070Z,2.30
2022-07-29T10:44:17.054Z,1.90
2022-07-29T10:46:44.751Z,2.00
2022-07-29T10:49:18.887Z,1.50
2022-07-29T10:51:58.962Z,1.90
2022-07-29T10:54:43.682Z,1.73
2022-07-29T10:57:14.019Z,1.90
2022-07-29T10:59:46.254Z,1.73
2022-07-29T11:02:41.430Z,1.75
2022-07-29T11:05:20.575Z,2.10
2022-07-29T11:11:22.215Z,1.70
2022-07-29T11:14:10.348Z,1.70
2022-07-29T11:17:14.359Z,1.90
2022-07-29T11:19:46.791Z,1.80
2022-07-29T11:22:35.342Z,1.90
2022-07-29T11:25:50.320Z,1.92
2022-07-29T11:28:23.158Z,1.67
2022-07-29T11:30:54.105Z,1.35
2022-07-29T11:33:54.193Z,2.20
2022-07-29T11:36:27.951Z,1.80
2022-07-29T11:39:36.371Z,1.70
2022-07-29T11:42:28.194Z,1.83
2022-07-29T11:45:44.360Z,1.55
2022-07-29T11:47:55.763Z,1.90
2022-07-29T11:50:37.555Z,1.90
2022-07-29T11:53:16.081Z,1.60
2022-07-29T11:55:50.985Z,1.60
2022-07-29T11:58:24.870Z,1.73
2022-07-29T12:00:52.531Z,2.10
2022-07-29T12:03:33.562Z,2.25
2022-07-29T12:06:07.938Z,2.55
2022-07-29T12:08:42.419Z,1.75
2022-07-29T12:11:21.691Z,1.50
2022-07-29T12:13:49.845Z,1.80
2022-07-29T12:16:25.722Z,2.25
2022-07-29T12:19:08.185Z,2.35
2022-07-29T12:21:56.758Z,2.17
2022-07-29T12:24:26.735Z,2.78
2022-07-29T12:26:58.898Z,2.90
2022-07-29T12:29:35.638Z,2.78
2022-07-29T12:32:05.250Z,2.92
2022-07-29T12:34:33.029Z,1.85
2022-07-29T12:37:02.205Z,2.97
2022-07-29T12:39:30.280Z,2.67
2022-07-29T12:42:03.793Z,2.45
2022-07-29T12:44:52.495Z,2.85
2022-07-29T12:47:20.530Z,2.47
2022-07-29T12:49:48.521Z,2.78
2022-07-29T12:52:29.680Z,2.47
2022-07-29T12:54:56.721Z,2.47
2022-07-29T12:57:24.888Z,1.92
2022-07-29T13:00:06.240Z,1.80
2022-07-29T13:05:01.804Z,1.90
2022-07-29T13:07:55.642Z,1.98
2022-07-29T13:10:24.314Z,1.75
2022-07-29T13:13:04.554Z,2.38
2022-07-29T13:15:32.488Z,2.05
2022-07-29T13:17:59.553Z,2.15
2022-07-29T13:20:30.565Z,2.20
2022-07-29T13:23:01.699Z,1.60
2022-07-29T13:28:00.586Z,2.00
2022-07-29T13:30:27.535Z,2.00
2022-07-29T13:32:54.375Z,2.20
2022-07-29T13:35:21.332Z,2.20
2022-07-29T13:37:48.335Z,2.05
2022-07-29T13:40:15.282Z,2.08
2022-07-29T13:42:42.411Z,2.00
2022-07-29T13:45:11.672Z,1.92
2022-07-29T13:47:39.037Z,2.05
2022-07-29T13:50:07.080Z,2.00
2022-07-29T13:52:34.464Z,1.90
2022-07-29T13:55:01.320Z,2.10
2022-07-29T13:57:28.930Z,2.40
2022-07-29T13:59:55.785Z,2.45
2022-07-29T14:02:25.357Z,1.85
2022-07-29T14:04:53.733Z,2.03
2022-07-29T14:07:20.805Z,1.40
2022-07-29T14:09:47.549Z,1.95
2022-07-29T14:12:14.281Z,1.75
2022-07-29T14:14:41.107Z,1.98
2022-07-29T14:17:08.064Z,1.95
2022-07-29T14:19:36.708Z,1.73
2022-07-29T14:22:05.458Z,1.80
2022-07-29T14:24:34.700Z,1.80
2022-07-29T14:27:04.554Z,1.80
2022-07-29T14:29:37.668Z,1.40
2022-07-29T14:32:06.915Z,1.90
2022-07-29T14:34:34.407Z,1.70
2022-07-29T14:37:01.214Z,1.60
2022-07-29T14:39:31.757Z,1.55
2022-07-29T14:41:59.451Z,1.80
2022-07-29T14:44:32.000Z,1.88
2022-07-29T14:47:00.853Z,1.48
2022-07-29T14:49:28.077Z,1.40
2022-07-29T14:51:55.076Z,1.50
2022-07-29T14:54:21.933Z,1.70
2022-07-29T14:56:50.315Z,2.05
2022-07-29T14:59:17.519Z,2.03
2022-07-29T15:01:44.315Z,1.42
2022-07-29T15:04:11.091Z,2.20
2022-07-29T15:06:38.828Z,1.90
2022-07-29T15:09:05.638Z,1.50
2022-07-29T15:11:32.516Z,1.77
2022-07-29T15:14:08.167Z,1.90
2022-07-29T15:16:37.855Z,1.70
2022-07-29T15:19:05.739Z,1.50
2022-07-29T15:21:33.041Z,1.17
2022-07-29T15:24:02.254Z,1.52
2022-07-29T15:26:28.981Z,1.27
2022-07-29T15:28:57.117Z,1.50
2022-07-29T15:31:23.854Z,1.45
2022-07-29T15:33:54.383Z,1.38
2022-07-29T15:36:50.717Z,1.50
2022-07-29T15:39:10.613Z,1.55
2022-07-29T15:41:37.542Z,1.88
2022-07-29T15:44:04.469Z,1.95
2022-07-29T15:46:49.881Z,1.98
2022-07-29T15:49:16.675Z,1.73
2022-07-29T15:51:43.510Z,1.80
2022-07-29T15:54:10.253Z,1.70
2022-07-29T15:56:36.949Z,2.20
2022-07-29T15:59:03.839Z,2.22
2022-07-29T16:01:30.669Z,2.33
2022-07-29T16:03:58.616Z,2.20
2022-07-29T16:06:25.331Z,1.83
2022-07-29T16:08:52.046Z,2.42
2022-07-29T16:11:18.713Z,2.63
2022-07-29T16:13:45.457Z,2.05
2022-07-29T16:16:13.131Z,2.20
2022-07-29T16:18:39.831Z,2.35
2022-07-29T16:21:06.501Z,2.10
2022-07-29T16:23:36.263Z,2.30
2022-07-29T16:26:02.928Z,2.08
2022-07-29T16:28:30.636Z,2.20
2022-07-29T16:30:57.874Z,2.30
2022-07-29T16:33:25.087Z,2.28
2022-07-29T16:35:52.801Z,2.50
2022-07-29T16:38:19.597Z,2.20
2022-07-29T16:40:46.639Z,2.13
2022-07-29T16:43:13.464Z,2.08
2022-07-29T16:45:45.331Z,2.28
2022-07-29T16:48:14.256Z,2.28
2022-07-29T16:50:41.417Z,2.42
2022-07-29T16:53:10.830Z,2.20
2022-07-29T16:55:37.744Z,2.63
2022-07-29T16:58:04.541Z,2.47
2022-07-29T17:00:31.653Z,2.25
2022-07-29T17:02:59.945Z,2.10
2022-07-29T17:05:27.819Z,2.17
2022-07-29T17:07:54.885Z,2.05
2022-07-29T17:10:22.279Z,2.90
2022-07-29T17:12:49.017Z,2.50
2022-07-29T17:15:18.476Z,1.95
2022-07-29T17:17:55.104Z,1.85
2022-07-29T17:20:22.570Z,2.50
2022-07-29T17:22:49.264Z,2.30
2022-07-29T17:25:20.590Z,2.38
2022-07-29T17:27:50.400Z,2.15
2022-07-29T17:30:17.545Z,2.30
2022-07-29T17:32:44.250Z,2.28
2022-07-29T17:35:29.698Z,2.15
2022-07-29T17:37:56.659Z,2.15
2022-07-29T17:40:25.747Z,2.20
2022-07-29T17:42:52.463Z,2.30
2022-07-29T17:45:19.244Z,1.77
2022-07-29T17:47:45.961Z,2.13
2022-07-29T17:50:12.754Z,2.30
2022-07-29T17:52:39.557Z,2.22
2022-07-29T17:55:07.150Z,1.52
2022-07-29T17:57:34.173Z,1.90
2022-07-29T18:00:00.918Z,2.00
2022-07-29T18:02:28.613Z,1.88
2022-07-29T18:04:58.427Z,1.90
2022-07-29T18:07:25.109Z,2.00
2022-07-29T18:09:51.796Z,2.50
2022-07-29T18:12:18.542Z,1.90
2022-07-29T18:14:45.226Z,2.38
2022-07-29T18:17:11.961Z,2.53
2022-07-29T18:19:38.900Z,2.22
2022-07-29T18:22:07.351Z,2.30
2022-07-29T18:24:34.943Z,1.95
2022-07-29T18:27:02.037Z,2.58
2022-07-29T18:29:30.295Z,1.80
2022-07-29T18:31:58.807Z,1.85
2022-07-29T18:34:25.758Z,2.40
2022-07-29T18:36:52.547Z,1.90
2022-07-29T18:39:20.975Z,2.00
2022-07-29T18:41:51.614Z,1.80
2022-07-29T18:44:22.102Z,2.30
2022-07-29T18:46:50.487Z,2.33
2022-07-29T18:49:17.344Z,1.95
2022-07-29T18:51:44.093Z,1.85
2022-07-29T18:54:13.711Z,1.70
2022-07-29T18:56:40.390Z,1.75
2022-07-29T18:59:07.384Z,2.28
2022-07-29T19:01:34.154Z,2.30
2022-07-29T19:04:01.415Z,1.98
2022-07-29T19:06:28.178Z,2.58
2022-07-29T19:08:54.905Z,2.30
2022-07-29T19:11:21.830Z,2.25
2022-07-29T19:13:48.821Z,2.05
2022-07-29T19:16:15.571Z,2.05
2022-07-29T19:18:43.485Z,2.17
2022-07-29T19:21:11.091Z,2.67
2022-07-29T19:24:01.791Z,2.47
2022-07-29T19:26:24.541Z,2.50
2022-07-29T19:28:53.350Z,2.40
2022-07-29T19:31:20.197Z,2.50
2022-07-29T19:33:46.977Z,2.35
2022-07-29T19:36:13.683Z,2.33
2022-07-29T19:38:40.494Z,2.30
2022-07-29T19:41:07.227Z,2.00
2022-07-29T19:43:51.499Z,2.42
2022-07-29T19:46:21.316Z,2.70
2022-07-29T19:48:48.423Z,2.10
2022-07-29T19:51:15.313Z,2.38
2022-07-29T19:53:42.016Z,2.13
2022-07-29T19:56:09.128Z,2.60
2022-07-29T19:58:36.206Z,2.85
2022-07-29T20:01:10.708Z,2.33
2022-07-29T20:03:39.957Z,2.63
2022-07-29T20:06:10.386Z,2.20
2022-07-29T20:08:37.238Z,2.63
2022-07-29T20:11:04.101Z,2.58
2022-07-29T20:13:33.085Z,2.55
2022-07-29T20:16:05.244Z,2.67
2022-07-29T20:18:32.121Z,2.72
2022-07-29T20:21:00.253Z,2.65
2022-07-29T20:23:30.169Z,2.20
2022-07-29T20:26:00.340Z,2.88
2022-07-29T20:28:27.625Z,2.80
2022-07-29T20:30:56.939Z,3.03
2022-07-29T20:33:26.571Z,3.00
2022-07-29T20:35:53.463Z,2.88
2022-07-29T20:38:22.990Z,3.85
2022-07-29T20:40:50.775Z,4.53
2022-07-29T20:43:17.567Z,34.25
2022-07-29T20:45:44.493Z,21.42
2022-07-29T20:48:11.630Z,21.38
2022-07-29T20:50:38.447Z,19.50
2022-07-29T20:53:05.337Z,17.48
2022-07-29T20:55:32.253Z,10.30
2022-07-29T20:57:59.044Z,6.47
2022-07-29T21:00:25.868Z,4.50
2022-07-29T21:02:52.678Z,3.22
2022-07-29T21:05:19.495Z,3.60
2022-07-29T21:07:46.277Z,3.35
2022-07-29T21:10:18.229Z,4.07
2022-07-29T21:12:48.684Z,3.58
2022-07-29T21:15:16.251Z,3.20
2022-07-29T21:17:48.937Z,3.60
2022-07-29T21:20:19.487Z,3.42
2022-07-29T21:22:49.037Z,3.30
2022-07-29T21:25:15.834Z,3.78
2022-07-29T21:28:00.986Z,3.13
2022-07-29T21:30:27.821Z,3.17
2022-07-29T21:32:54.579Z,3.55
2022-07-29T21:35:45.363Z,3.80
2022-07-29T21:38:07.997Z,3.35
2022-07-29T21:40:34.732Z,3.45
2022-07-29T21:43:04.394Z,3.35
2022-07-29T21:45:31.115Z,3.88
2022-07-29T21:47:57.766Z,3.20
2022-07-29T21:50:24.444Z,3.78
2022-07-29T21:52:51.176Z,4.18
2022-07-29T21:55:18.611Z,4.43
2022-07-29T21:57:46.151Z,3.83
2022-07-29T22:00:16.260Z,4.10
2022-07-29T22:02:43.576Z,3.60
2022-07-29T22:05:12.297Z,3.55
2022-07-29T22:07:55.907Z,3.85
2022-07-29T22:10:27.557Z,3.88
2022-07-29T22:12:56.745Z,4.60
2022-07-29T22:15:24.336Z,3.80
2022-07-29T22:17:51.240Z,3.80
2022-07-29T22:20:18.513Z,3.42
2022-07-29T22:22:45.578Z,4.32
2022-07-29T22:25:12.456Z,3.60
2022-07-29T22:27:39.325Z,3.53
2022-07-29T22:30:07.370Z,3.70
2022-07-29T22:32:34.554Z,3.78
2022-07-29T22:35:01.464Z,4.43
2022-07-29T22:37:28.369Z,4.75
2022-07-29T22:39:55.065Z,6.05
2022-07-29T22:42:21.787Z,6.53
2022-07-29T22:44:48.525Z,6.30
2022-07-29T22:47:15.257Z,6.07
2022-07-29T22:49:42.077Z,4.70
2022-07-29T22:52:09.155Z,4.63
2022-07-29T22:54:35.865Z,4.45
2022-07-29T22:57:03.160Z,2.90
2022-07-29T22:59:30.011Z,4.45
2022-07-29T23:01:56.787Z,3.35
2022-07-29T23:04:23.764Z,3.45
2022-07-29T23:06:51.126Z,3.92
2022-07-29T23:09:17.982Z,3.13
2022-07-29T23:11:45.034Z,4.15
2022-07-29T23:14:11.762Z,3.72
2022-07-29T23:16:38.580Z,3.72
2022-07-29T23:19:05.502Z,3.53
2022-07-29T23:21:32.182Z,3.70
2022-07-29T23:23:59.019Z,3.30
2022-07-29T23:26:25.828Z,3.60
2022-07-29T23:28:52.562Z,3.45
2022-07-29T23:31:19.348Z,4.05
2022-07-29T23:33:46.040Z,3.85
2022-07-29T23:36:12.782Z,3.78
2022-07-29T23:38:43.092Z,3.80
2022-07-29T23:41:09.921Z,4.35
2022-07-29T23:43:37.677Z,3.40
2022-07-29T23:46:05.015Z,4.28
2022-07-29T23:48:34.476Z,4.07
2022-07-29T23:51:01.297Z,3.50
2022-07-29T23:53:28.588Z,3.78
2022-07-29T23:55:56.070Z,4.18
2022-07-29T23:58:23.118Z,4.38
